Time;durP1;ratioP1;P1;durP2;ratioP2;P2;SDS_P1;SDS_P2;PMS_P1;PMS_P2;Temp;Humidity;BMP_temperature;BMP_pressure;BME280_temperature;BME280_humidity;BME280_pressure;Samples;Min_cycle;Max_cycle;Signal;HPM_P1;HPM_P2
2021/05/09 00:01:28;;;;;;;9.07;8.47;;;;;;;;;;5032628;28;20488;-63
2021/05/09 00:03:55;;;;;;;7.50;7.00;;;;;;;;;;5033940;28;20476;-64
2021/05/09 00:06:22;;;;;;;8.27;7.67;;;;;;;;;;5032451;28;20469;-64
2021/05/09 00:08:48;;;;;;;7.70;7.10;;;;;;;;;;5034661;28;20492;-63
2021/05/09 00:11:16;;;;;;;8.07;7.57;;;;;;;;;;5034055;28;21018;-63
2021/05/09 00:13:42;;;;;;;7.87;7.20;;;;;;;;;;5032432;28;20475;-64
2021/05/09 00:16:10;;;;;;;8.33;7.63;;;;;;;;;;5031639;28;20995;-63
2021/05/09 00:18:38;;;;;;;8.07;7.47;;;;;;;;;;5014800;28;20495;-63
2021/05/09 00:21:05;;;;;;;7.97;7.27;;;;;;;;;;5031835;28;20492;-64
2021/05/09 00:23:32;;;;;;;8.27;7.67;;;;;;;;;;5033711;28;20453;-64
2021/05/09 00:25:58;;;;;;;8.00;7.30;;;;;;;;;;5031561;28;20467;-63
2021/05/09 00:28:25;;;;;;;7.30;6.80;;;;;;;;;;5033845;28;20484;-63
2021/05/09 00:30:52;;;;;;;7.80;7.20;;;;;;;;;;5032049;28;20488;-63
2021/05/09 00:33:18;;;;;;;8.20;7.60;;;;;;;;;;5030825;28;20465;-63
2021/05/09 00:35:46;;;;;;;7.90;7.20;;;;;;;;;;5032862;28;20567;-63
2021/05/09 00:38:13;;;;;;;8.23;7.73;;;;;;;;;;5032694;28;20487;-63
2021/05/09 00:40:39;;;;;;;6.90;6.43;;;;;;;;;;5033265;28;20468;-64
2021/05/09 00:43:06;;;;;;;7.87;7.20;;;;;;;;;;5032155;28;20464;-64
2021/05/09 00:45:33;;;;;;;8.47;7.90;;;;;;;;;;5027016;28;20466;-64
2021/05/09 00:47:59;;;;;;;7.90;7.20;;;;;;;;;;5024105;28;20956;-64
2021/05/09 00:50:27;;;;;;;8.17;7.57;;;;;;;;;;5013802;28;20488;-65
2021/05/09 00:52:55;;;;;;;7.30;6.90;;;;;;;;;;5023745;28;20523;-65
2021/05/09 00:55:22;;;;;;;7.60;7.00;;;;;;;;;;5032010;28;20952;-65
2021/05/09 00:57:49;;;;;;;7.73;7.17;;;;;;;;;;5033236;28;20453;-65
2021/05/09 01:00:16;;;;;;;6.70;6.20;;;;;;;;;;5027265;28;20472;-65
2021/05/09 01:02:44;;;;;;;8.10;7.50;;;;;;;;;;5033213;28;20457;-65
2021/05/09 01:05:11;;;;;;;7.60;7.10;;;;;;;;;;5032277;28;20465;-65
2021/05/09 01:07:38;;;;;;;8.30;7.50;;;;;;;;;;5032844;28;20449;-64
2021/05/09 01:10:07;;;;;;;7.07;6.57;;;;;;;;;;5032064;28;20530;-64
2021/05/09 01:12:34;;;;;;;7.17;6.67;;;;;;;;;;5031940;28;21021;-64
2021/05/09 01:15:02;;;;;;;7.70;7.10;;;;;;;;;;5032305;28;20469;-64
2021/05/09 01:17:29;;;;;;;7.17;6.60;;;;;;;;;;5031528;28;20987;-64
2021/05/09 01:19:55;;;;;;;7.50;7.00;;;;;;;;;;5030831;28;20476;-64
2021/05/09 01:22:23;;;;;;;7.53;7.03;;;;;;;;;;5032539;28;20826;-64
2021/05/09 01:24:49;;;;;;;7.23;6.60;;;;;;;;;;5031198;28;20449;-64
2021/05/09 01:27:16;;;;;;;7.30;6.80;;;;;;;;;;5032550;28;20449;-64
2021/05/09 01:29:42;;;;;;;7.43;6.83;;;;;;;;;;5030680;28;20485;-64
2021/05/09 01:32:09;;;;;;;7.53;6.97;;;;;;;;;;5032360;28;20568;-64
2021/05/09 01:34:36;;;;;;;7.17;6.77;;;;;;;;;;5030203;28;20472;-64
2021/05/09 01:37:04;;;;;;;7.97;7.40;;;;;;;;;;5012619;28;20456;-64
2021/05/09 01:39:32;;;;;;;6.37;5.73;;;;;;;;;;5027285;28;20487;-64
2021/05/09 01:42:01;;;;;;;7.77;7.27;;;;;;;;;;5031889;28;21041;-64
2021/05/09 01:44:27;;;;;;;7.27;6.70;;;;;;;;;;5029934;28;21247;-64
2021/05/09 01:46:54;;;;;;;7.03;6.43;;;;;;;;;;5031647;28;20467;-65
2021/05/09 01:49:20;;;;;;;6.87;6.37;;;;;;;;;;5032034;28;20488;-64
2021/05/09 01:51:47;;;;;;;7.17;6.53;;;;;;;;;;5029653;28;20488;-64
2021/05/09 01:54:14;;;;;;;6.43;6.03;;;;;;;;;;5031902;28;20967;-64
2021/05/09 01:56:41;;;;;;;6.77;6.27;;;;;;;;;;5030026;28;20484;-63
2021/05/09 01:59:08;;;;;;;6.50;6.00;;;;;;;;;;5031978;28;20467;-64
2021/05/09 02:01:35;;;;;;;7.03;6.57;;;;;;;;;;5030714;28;20488;-64
2021/05/09 02:04:01;;;;;;;7.60;6.30;;;;;;;;;;5030927;28;20559;-64
2021/05/09 02:06:28;;;;;;;6.60;6.20;;;;;;;;;;5031034;28;20882;-64
2021/05/09 02:08:54;;;;;;;7.20;6.70;;;;;;;;;;5031044;28;20491;-64
2021/05/09 02:11:21;;;;;;;7.23;6.70;;;;;;;;;;5030764;28;20899;-64
2021/05/09 02:13:49;;;;;;;6.27;5.87;;;;;;;;;;5030284;28;20494;-65
2021/05/09 02:16:15;;;;;;;6.30;5.80;;;;;;;;;;5029600;28;20468;-65
2021/05/09 02:18:42;;;;;;;6.50;6.03;;;;;;;;;;5030060;28;20487;-64
2021/05/09 02:21:08;;;;;;;6.70;6.13;;;;;;;;;;5031936;28;20468;-64
2021/05/09 02:23:35;;;;;;;6.87;6.47;;;;;;;;;;5030998;28;20866;-64
2021/05/09 02:26:01;;;;;;;6.83;6.33;;;;;;;;;;5012112;28;20453;-64
2021/05/09 02:28:28;;;;;;;6.63;6.13;;;;;;;;;;5028843;28;20494;-64
2021/05/09 02:30:55;;;;;;;6.60;6.20;;;;;;;;;;5031668;28;20484;-64
2021/05/09 02:33:22;;;;;;;6.53;6.13;;;;;;;;;;5029537;28;20466;-63
2021/05/09 02:35:49;;;;;;;7.10;6.40;;;;;;;;;;5030801;28;20476;-63
2021/05/09 02:38:15;;;;;;;6.47;5.73;;;;;;;;;;5032116;28;20505;-64
2021/05/09 02:40:42;;;;;;;6.30;5.80;;;;;;;;;;5019745;28;20528;-64
2021/05/09 02:43:08;;;;;;;6.60;6.10;;;;;;;;;;5015785;28;20475;-64
2021/05/09 02:45:35;;;;;;;6.90;6.40;;;;;;;;;;5030654;28;20464;-64
2021/05/09 02:48:03;;;;;;;6.70;6.30;;;;;;;;;;5029122;28;21125;-63
2021/05/09 02:50:29;;;;;;;6.50;6.10;;;;;;;;;;5031205;28;20628;-64
2021/05/09 02:52:56;;;;;;;8.33;6.10;;;;;;;;;;5030800;28;20483;-64
2021/05/09 02:55:22;;;;;;;6.80;6.37;;;;;;;;;;5027768;28;21258;-64
2021/05/09 02:57:49;;;;;;;6.70;6.20;;;;;;;;;;5023042;28;20471;-64
2021/05/09 03:00:16;;;;;;;6.13;5.53;;;;;;;;;;5027595;28;20461;-64
2021/05/09 03:02:43;;;;;;;6.40;6.00;;;;;;;;;;5029587;28;20468;-64
2021/05/09 03:05:11;;;;;;;6.50;5.90;;;;;;;;;;5029469;28;20464;-64
2021/05/09 03:07:37;;;;;;;5.87;5.57;;;;;;;;;;5022706;28;20464;-64
2021/05/09 03:10:04;;;;;;;6.67;6.07;;;;;;;;;;5032796;28;20480;-65
2021/05/09 03:12:31;;;;;;;6.47;5.97;;;;;;;;;;5025128;28;20536;-64
2021/05/09 03:14:58;;;;;;;6.17;5.73;;;;;;;;;;5032776;28;20468;-65
2021/05/09 03:17:24;;;;;;;6.67;6.10;;;;;;;;;;5032007;28;20819;-65
2021/05/09 03:19:51;;;;;;;6.30;5.90;;;;;;;;;;5033725;28;20526;-65
2021/05/09 03:22:18;;;;;;;5.67;5.27;;;;;;;;;;5027646;28;21057;-65
2021/05/09 03:24:45;;;;;;;5.40;5.10;;;;;;;;;;5029757;28;20471;-65
2021/05/09 03:27:11;;;;;;;7.00;5.80;;;;;;;;;;5033759;28;20475;-65
2021/05/09 03:29:38;;;;;;;5.80;5.40;;;;;;;;;;5031467;28;20484;-65
2021/05/09 03:32:05;;;;;;;6.47;5.27;;;;;;;;;;5033272;28;20550;-64
2021/05/09 03:34:31;;;;;;;6.37;5.87;;;;;;;;;;5033466;28;20472;-64
2021/05/09 03:36:58;;;;;;;6.10;5.70;;;;;;;;;;5020896;28;20465;-64
2021/05/09 03:39:25;;;;;;;4.97;4.67;;;;;;;;;;5029735;28;20514;-64
2021/05/09 03:41:52;;;;;;;5.87;5.47;;;;;;;;;;5031665;28;20496;-64
2021/05/09 03:44:19;;;;;;;6.17;5.67;;;;;;;;;;5032563;28;20457;-64
2021/05/09 03:46:45;;;;;;;5.83;5.30;;;;;;;;;;5031814;28;20899;-64
2021/05/09 03:49:12;;;;;;;5.37;4.97;;;;;;;;;;5033500;28;20476;-64
2021/05/09 03:51:38;;;;;;;5.37;4.97;;;;;;;;;;5031957;28;20494;-64
2021/05/09 03:54:05;;;;;;;5.80;5.23;;;;;;;;;;5025164;28;20461;-64
2021/05/09 03:56:33;;;;;;;6.20;5.80;;;;;;;;;;5030589;28;20471;-64
2021/05/09 03:58:59;;;;;;;6.30;5.70;;;;;;;;;;5033339;28;20456;-64
2021/05/09 04:01:26;;;;;;;5.60;5.20;;;;;;;;;;5032098;28;20488;-64
2021/05/09 04:03:52;;;;;;;6.10;5.60;;;;;;;;;;5032477;28;20877;-64
2021/05/09 04:06:19;;;;;;;5.93;5.53;;;;;;;;;;5032592;28;20465;-64
2021/05/09 04:08:45;;;;;;;5.90;5.40;;;;;;;;;;5037023;28;20825;-64
2021/05/09 04:11:13;;;;;;;5.40;5.10;;;;;;;;;;5031233;28;20485;-65
2021/05/09 04:13:47;;;;;;;5.53;5.20;;;;;;;;;;5033239;28;20542;-64
2021/05/09 04:16:14;;;;;;;5.23;4.93;;;;;;;;;;5031098;28;20975;-65
2021/05/09 04:18:40;;;;;;;6.33;5.83;;;;;;;;;;5026247;28;20473;-64
2021/05/09 04:21:07;;;;;;;5.47;5.07;;;;;;;;;;5029534;28;20487;-64
2021/05/09 04:23:34;;;;;;;5.10;4.80;;;;;;;;;;5033134;28;20469;-64
2021/05/09 04:26:00;;;;;;;5.47;5.07;;;;;;;;;;5031730;28;20510;-64
2021/05/09 04:28:27;;;;;;;5.37;5.00;;;;;;;;;;5031060;28;20469;-64
2021/05/09 04:30:55;;;;;;;5.33;5.00;;;;;;;;;;5031056;28;20508;-65
2021/05/09 04:33:25;;;;;;;5.70;5.20;;;;;;;;;;5032818;28;20492;-64
2021/05/09 04:35:52;;;;;;;5.50;5.10;;;;;;;;;;5032394;28;20802;-64
2021/05/09 04:38:19;;;;;;;5.63;5.13;;;;;;;;;;5032108;28;20483;-64
2021/05/09 04:40:46;;;;;;;5.47;5.07;;;;;;;;;;5032100;28;20480;-64
2021/05/09 04:43:13;;;;;;;5.17;4.80;;;;;;;;;;5030997;28;20469;-64
2021/05/09 04:45:39;;;;;;;5.40;5.00;;;;;;;;;;5025535;28;20468;-64
2021/05/09 04:48:07;;;;;;;4.90;4.53;;;;;;;;;;5031025;28;20544;-64
2021/05/09 04:50:34;;;;;;;5.13;4.73;;;;;;;;;;5033220;28;20495;-64
2021/05/09 04:53:01;;;;;;;5.30;4.90;;;;;;;;;;5031461;28;20483;-64
2021/05/09 04:55:27;;;;;;;5.53;5.13;;;;;;;;;;5030193;28;20522;-64
2021/05/09 04:57:54;;;;;;;5.57;5.17;;;;;;;;;;5032253;28;20838;-64
2021/05/09 05:00:21;;;;;;;5.80;5.20;;;;;;;;;;5032585;28;20464;-64
2021/05/09 05:02:48;;;;;;;5.10;4.80;;;;;;;;;;5032666;28;20461;-65
2021/05/09 05:05:16;;;;;;;5.33;4.93;;;;;;;;;;5034749;28;20471;-64
2021/05/09 05:07:43;;;;;;;5.57;5.27;;;;;;;;;;5033584;28;20490;-64
2021/05/09 05:10:10;;;;;;;5.30;4.90;;;;;;;;;;5033772;28;20487;-64
2021/05/09 05:12:36;;;;;;;5.53;5.13;;;;;;;;;;5032779;28;20500;-65
2021/05/09 05:15:03;;;;;;;5.60;5.10;;;;;;;;;;5022242;28;20460;-65
2021/05/09 05:17:29;;;;;;;5.47;5.07;;;;;;;;;;5032722;28;20535;-65
2021/05/09 05:19:56;;;;;;;5.07;4.77;;;;;;;;;;5035773;28;20458;-65
2021/05/09 05:22:23;;;;;;;5.00;4.70;;;;;;;;;;5040826;28;20488;-66
2021/05/09 05:24:50;;;;;;;5.30;4.90;;;;;;;;;;5030164;28;20466;-64
2021/05/09 05:27:17;;;;;;;5.93;5.30;;;;;;;;;;5026714;28;20473;-66
2021/05/09 05:29:43;;;;;;;4.87;4.47;;;;;;;;;;5030804;28;20484;-67
2021/05/09 05:32:10;;;;;;;5.17;4.77;;;;;;;;;;5030875;28;20526;-65
2021/05/09 05:34:36;;;;;;;4.87;4.57;;;;;;;;;;5030288;28;21128;-66
2021/05/09 05:37:03;;;;;;;4.70;4.40;;;;;;;;;;5030079;28;20469;-66
2021/05/09 05:39:30;;;;;;;4.47;4.07;;;;;;;;;;5030869;28;20460;-66
2021/05/09 05:41:59;;;;;;;4.70;4.27;;;;;;;;;;5030291;28;20476;-66
2021/05/09 05:44:25;;;;;;;3.90;3.60;;;;;;;;;;5031137;28;20468;-66
2021/05/09 05:46:52;;;;;;;3.90;3.60;;;;;;;;;;5029091;28;20514;-66
2021/05/09 05:49:18;;;;;;;4.00;3.70;;;;;;;;;;5030994;28;20550;-66
2021/05/09 05:51:45;;;;;;;4.30;2.73;;;;;;;;;;5023998;28;20877;-63
2021/05/09 05:54:12;;;;;;;3.63;3.30;;;;;;;;;;5032305;28;20453;-63
2021/05/09 05:56:39;;;;;;;4.20;3.37;;;;;;;;;;5023355;28;20948;-62
2021/05/09 05:59:06;;;;;;;2.97;2.77;;;;;;;;;;5031876;28;20956;-63
2021/05/09 06:01:32;;;;;;;3.50;2.90;;;;;;;;;;5023179;28;20472;-63
2021/05/09 06:03:59;;;;;;;3.53;3.13;;;;;;;;;;5031351;28;20952;-63
2021/05/09 06:06:25;;;;;;;4.87;3.53;;;;;;;;;;5031271;28;20506;-63
2021/05/09 06:08:53;;;;;;;3.60;3.30;;;;;;;;;;5031251;28;21024;-63
2021/05/09 06:11:19;;;;;;;3.50;3.13;;;;;;;;;;5021368;28;20991;-65
2021/05/09 06:13:47;;;;;;;2.87;2.67;;;;;;;;;;5032287;28;20449;-65
2021/05/09 06:16:13;;;;;;;3.20;2.90;;;;;;;;;;5025315;28;20444;-66
2021/05/09 06:18:40;;;;;;;2.70;2.50;;;;;;;;;;5031064;28;20459;-66
2021/05/09 06:21:06;;;;;;;2.87;2.57;;;;;;;;;;5032490;28;20473;-64
2021/05/09 06:23:33;;;;;;;2.97;2.73;;;;;;;;;;5032041;28;20445;-65
2021/05/09 06:25:59;;;;;;;4.20;2.90;;;;;;;;;;5032647;28;20451;-65
2021/05/09 06:28:26;;;;;;;3.03;2.80;;;;;;;;;;5033950;28;20451;-65
2021/05/09 06:30:54;;;;;;;2.73;2.53;;;;;;;;;;5021895;28;20919;-63
2021/05/09 06:33:20;;;;;;;2.90;2.70;;;;;;;;;;5034538;28;20458;-66
2021/05/09 06:35:47;;;;;;;3.30;2.33;;;;;;;;;;5034182;28;20467;-66
2021/05/09 06:38:13;;;;;;;2.40;2.13;;;;;;;;;;5035338;28;20801;-65
2021/05/09 06:40:40;;;;;;;2.50;2.30;;;;;;;;;;5035088;28;20468;-65
2021/05/09 06:43:07;;;;;;;2.90;2.60;;;;;;;;;;5033173;28;20876;-65
2021/05/09 06:45:34;;;;;;;3.03;2.67;;;;;;;;;;5036756;28;20473;-65
2021/05/09 06:48:02;;;;;;;3.00;2.40;;;;;;;;;;5036531;28;20459;-65
2021/05/09 06:50:30;;;;;;;3.27;1.60;;;;;;;;;;5035574;28;20582;-65
2021/05/09 06:52:57;;;;;;;2.63;1.77;;;;;;;;;;5035696;28;20452;-65
2021/05/09 06:55:23;;;;;;;2.90;1.77;;;;;;;;;;5034912;28;20460;-65
2021/05/09 06:57:50;;;;;;;3.13;2.30;;;;;;;;;;5032969;28;20955;-64
2021/05/09 07:00:18;;;;;;;4.03;1.33;;;;;;;;;;5035570;28;20440;-65
2021/05/09 07:02:45;;;;;;;2.37;2.00;;;;;;;;;;5027003;28;20463;-65
2021/05/09 07:05:12;;;;;;;2.30;1.43;;;;;;;;;;5017195;28;20449;-64
2021/05/09 07:07:51;;;;;;;3.30;1.60;;;;;;;;;;5035100;28;20454;-65
2021/05/09 07:10:18;;;;;;;2.87;1.60;;;;;;;;;;5015485;28;20612;-65
2021/05/09 07:12:45;;;;;;;2.03;1.33;;;;;;;;;;5015120;28;20462;-63
2021/05/09 07:15:14;;;;;;;4.17;1.50;;;;;;;;;;5029508;28;20448;-63
2021/05/09 07:17:42;;;;;;;1.83;1.20;;;;;;;;;;5034892;28;20490;-63
2021/05/09 07:20:09;;;;;;;2.57;1.73;;;;;;;;;;5034769;28;20939;-64
2021/05/09 07:22:39;;;;;;;2.00;1.40;;;;;;;;;;5034523;28;20990;-64
2021/05/09 07:25:06;;;;;;;3.10;1.40;;;;;;;;;;5030092;28;20488;-65
2021/05/09 07:27:33;;;;;;;2.27;1.67;;;;;;;;;;5034374;28;20960;-64
2021/05/09 07:29:59;;;;;;;5.83;1.80;;;;;;;;;;5023747;28;20485;-64
2021/05/09 07:32:26;;;;;;;7.93;1.90;;;;;;;;;;5027979;28;20572;-66
2021/05/09 07:34:53;;;;;;;7.93;2.13;;;;;;;;;;5034453;28;20467;-66
2021/05/09 07:37:19;;;;;;;3.63;1.83;;;;;;;;;;5034891;28;20458;-65
2021/05/09 07:39:47;;;;;;;4.10;1.90;;;;;;;;;;5034610;28;20459;-65
2021/05/09 07:42:13;;;;;;;3.67;1.70;;;;;;;;;;5034589;28;20469;-65
2021/05/09 07:44:40;;;;;;;3.77;1.90;;;;;;;;;;5028442;28;20452;-65
2021/05/09 07:47:07;;;;;;;3.70;2.33;;;;;;;;;;5033985;28;21002;-65
2021/05/09 07:49:34;;;;;;;5.00;2.40;;;;;;;;;;5033546;28;20558;-64
2021/05/09 07:52:00;;;;;;;7.40;2.00;;;;;;;;;;5034246;28;20556;-65
2021/05/09 07:54:27;;;;;;;6.93;3.13;;;;;;;;;;5034072;28;20543;-65
2021/05/09 07:56:54;;;;;;;3.47;2.03;;;;;;;;;;5027881;28;20488;-64
2021/05/09 07:59:21;;;;;;;5.17;2.20;;;;;;;;;;5050004;28;20721;-65
2021/05/09 08:01:48;;;;;;;5.50;2.20;;;;;;;;;;5033330;28;20564;-65
2021/05/09 08:04:14;;;;;;;3.20;2.13;;;;;;;;;;5034019;28;20485;-65
2021/05/09 08:06:43;;;;;;;4.63;2.53;;;;;;;;;;5029346;28;21037;-65
2021/05/09 08:09:10;;;;;;;4.77;2.33;;;;;;;;;;5014584;28;20456;-64
2021/05/09 08:11:36;;;;;;;5.83;2.40;;;;;;;;;;5025334;28;20476;-65
2021/05/09 08:14:04;;;;;;;2.67;1.70;;;;;;;;;;5034026;28;20511;-66
2021/05/09 08:16:31;;;;;;;3.87;2.00;;;;;;;;;;5033690;28;20479;-65
2021/05/09 08:18:58;;;;;;;2.87;2.03;;;;;;;;;;5038455;28;20820;-65
2021/05/09 08:21:24;;;;;;;4.17;1.90;;;;;;;;;;5053739;28;20495;-64
2021/05/09 08:23:51;;;;;;;4.50;2.07;;;;;;;;;;5053544;28;20535;-65
2021/05/09 08:26:17;;;;;;;5.93;2.57;;;;;;;;;;5029526;28;20976;-64
2021/05/09 08:28:44;;;;;;;3.13;2.27;;;;;;;;;;5017890;28;20500;-66
2021/05/09 08:31:15;;;;;;;2.77;2.37;;;;;;;;;;5015533;28;20504;-65
2021/05/09 08:33:42;;;;;;;3.93;3.43;;;;;;;;;;5033595;28;20490;-67
2021/05/09 08:36:09;;;;;;;6.20;3.60;;;;;;;;;;5032868;28;20487;-63
2021/05/09 08:38:36;;;;;;;10.47;2.90;;;;;;;;;;5029043;28;20536;-64
2021/05/09 08:41:02;;;;;;;5.37;3.30;;;;;;;;;;5032920;28;20468;-64
2021/05/09 08:43:29;;;;;;;7.13;2.70;;;;;;;;;;5053217;28;20487;-64
2021/05/09 08:45:57;;;;;;;4.93;2.70;;;;;;;;;;5052646;28;20531;-64
2021/05/09 08:48:26;;;;;;;4.57;2.50;;;;;;;;;;5052967;28;20447;-64
2021/05/09 08:50:53;;;;;;;4.63;1.97;;;;;;;;;;5052671;28;20578;-64
2021/05/09 08:53:20;;;;;;;5.30;2.60;;;;;;;;;;5039446;28;20524;-63
2021/05/09 08:55:46;;;;;;;4.67;2.70;;;;;;;;;;5053017;28;20548;-64
2021/05/09 08:58:13;;;;;;;4.20;1.90;;;;;;;;;;5052852;28;20471;-64
2021/05/09 09:00:40;;;;;;;3.80;2.10;;;;;;;;;;5052424;28;20464;-64
2021/05/09 09:03:07;;;;;;;2.47;1.70;;;;;;;;;;5052900;28;20963;-63
2021/05/09 09:05:36;;;;;;;4.10;1.90;;;;;;;;;;5051227;28;20482;-64
2021/05/09 09:08:02;;;;;;;3.60;2.17;;;;;;;;;;5032118;28;20955;-64
2021/05/09 09:10:30;;;;;;;3.03;2.10;;;;;;;;;;5032963;28;20519;-64
2021/05/09 09:12:59;;;;;;;2.87;2.10;;;;;;;;;;5022603;28;20489;-64
2021/05/09 09:15:26;;;;;;;2.87;2.07;;;;;;;;;;5031114;28;20485;-64
2021/05/09 09:17:52;;;;;;;2.90;2.27;;;;;;;;;;5026549;28;20512;-64
2021/05/09 09:20:19;;;;;;;2.10;1.80;;;;;;;;;;5032323;28;20528;-64
2021/05/09 09:22:57;;;;;;;1.90;1.70;;;;;;;;;;5033092;28;20432;-64
2021/05/09 09:25:25;;;;;;;4.10;2.00;;;;;;;;;;5051330;28;20493;-63
2021/05/09 09:27:52;;;;;;;2.93;1.80;;;;;;;;;;5052191;28;20447;-64
2021/05/09 09:30:19;;;;;;;3.10;1.70;;;;;;;;;;5052001;28;21064;-64
2021/05/09 09:33:05;;;;;;;2.23;1.83;;;;;;;;;;5042052;28;20946;-64
2021/05/09 09:35:31;;;;;;;2.50;1.53;;;;;;;;;;5031086;28;20488;-64
2021/05/09 09:37:59;;;;;;;2.53;1.60;;;;;;;;;;5027689;28;21007;-64
2021/05/09 09:40:26;;;;;;;2.03;1.70;;;;;;;;;;5025728;28;20453;-64
2021/05/09 09:42:52;;;;;;;2.47;1.87;;;;;;;;;;5032148;28;20539;-64
2021/05/09 09:45:20;;;;;;;3.00;1.77;;;;;;;;;;5052239;28;20535;-63
2021/05/09 09:47:47;;;;;;;4.17;2.40;;;;;;;;;;5034222;28;20460;-63
2021/05/09 09:50:29;;;;;;;3.17;1.60;;;;;;;;;;5049001;28;20490;-64
2021/05/09 09:52:55;;;;;;;2.73;2.20;;;;;;;;;;5045666;28;20484;-64
2021/05/09 09:55:23;;;;;;;3.30;1.93;;;;;;;;;;5032192;28;20536;-64
2021/05/09 09:58:01;;;;;;;2.33;1.63;;;;;;;;;;5032064;28;20479;-64
2021/05/09 10:00:28;;;;;;;3.37;2.20;;;;;;;;;;5031026;28;20533;-64
2021/05/09 10:02:55;;;;;;;1.90;1.60;;;;;;;;;;5028446;28;20519;-63
2021/05/09 10:05:23;;;;;;;2.47;2.27;;;;;;;;;;5031637;28;21023;-64
2021/05/09 10:07:49;;;;;;;3.00;2.20;;;;;;;;;;5043783;28;20484;-63
2021/05/09 10:10:17;;;;;;;3.00;2.00;;;;;;;;;;5031832;28;20515;-63
2021/05/09 10:12:44;;;;;;;2.67;1.87;;;;;;;;;;5028278;28;20488;-63
2021/05/09 10:15:11;;;;;;;3.80;2.40;;;;;;;;;;5031995;28;20480;-63
2021/05/09 10:17:38;;;;;;;2.33;1.87;;;;;;;;;;5024408;28;20831;-63
2021/05/09 10:20:06;;;;;;;2.83;1.83;;;;;;;;;;5050955;28;20479;-63
2021/05/09 10:22:33;;;;;;;2.27;1.50;;;;;;;;;;5031049;28;21031;-63
2021/05/09 10:25:00;;;;;;;2.60;1.67;;;;;;;;;;5031670;28;20944;-63
2021/05/09 10:27:34;;;;;;;2.50;1.90;;;;;;;;;;5030827;28;20453;-63
2021/05/09 10:30:02;;;;;;;4.83;2.60;;;;;;;;;;5030972;28;20531;-63
2021/05/09 10:32:48;;;;;;;3.60;2.77;;;;;;;;;;5031287;28;20858;-63
2021/05/09 10:35:15;;;;;;;3.30;2.57;;;;;;;;;;5025082;28;20543;-63
2021/05/09 10:38:08;;;;;;;2.90;2.20;;;;;;;;;;5031013;28;20484;-63
2021/05/09 10:40:37;;;;;;;3.10;2.23;;;;;;;;;;4989757;28;20592;-63
2021/05/09 10:43:22;;;;;;;2.43;2.03;;;;;;;;;;5011694;28;20599;-63
2021/05/09 10:45:55;;;;;;;2.17;1.73;;;;;;;;;;5011786;28;20528;-63
2021/05/09 10:48:30;;;;;;;2.77;1.70;;;;;;;;;;5028325;28;20476;-63
2021/05/09 10:51:23;;;;;;;2.67;1.97;;;;;;;;;;5031314;28;20487;-63
2021/05/09 10:53:49;;;;;;;3.00;1.93;;;;;;;;;;5037771;28;20480;-63
2021/05/09 10:56:31;;;;;;;3.07;1.80;;;;;;;;;;5036550;28;20479;-63
2021/05/09 10:58:58;;;;;;;2.40;1.97;;;;;;;;;;5031048;28;20488;-63
2021/05/09 11:01:27;;;;;;;3.70;2.20;;;;;;;;;;5030487;28;20476;-64
2021/05/09 11:03:55;;;;;;;8.60;7.70;;;;;;;;;;5031110;28;20457;-64
2021/05/09 11:06:22;;;;;;;4.20;1.90;;;;;;;;;;5030434;28;20486;-63
2021/05/09 11:08:59;;;;;;;11.53;10.43;;;;;;;;;;5030429;28;20535;-64
2021/05/09 11:11:44;;;;;;;12.87;11.80;;;;;;;;;;5030604;28;20484;-66
2021/05/09 11:14:17;;;;;;;16.47;14.93;;;;;;;;;;5030589;28;20543;-66
2021/05/09 11:16:45;;;;;;;10.33;9.43;;;;;;;;;;5016984;28;20481;-66
2021/05/09 11:19:13;;;;;;;14.63;11.13;;;;;;;;;;5016247;28;20951;-65
2021/05/09 11:21:41;;;;;;;3.57;1.90;;;;;;;;;;5023413;28;20489;-66
2021/05/09 11:24:09;;;;;;;36.40;33.10;;;;;;;;;;5015314;28;20449;-66
2021/05/09 11:26:38;;;;;;;1.60;1.47;;;;;;;;;;5015929;28;20548;-67
2021/05/09 11:29:05;;;;;;;3.17;1.73;;;;;;;;;;5023464;28;20461;-66
2021/05/09 11:31:32;;;;;;;1.70;1.40;;;;;;;;;;5014721;28;20489;-66
2021/05/09 11:33:59;;;;;;;2.73;1.53;;;;;;;;;;5015011;28;21044;-66
2021/05/09 11:36:26;;;;;;;2.00;1.20;;;;;;;;;;5030977;28;20460;-66
2021/05/09 11:39:03;;;;;;;1.53;1.10;;;;;;;;;;5034430;28;20944;-66
2021/05/09 11:41:30;;;;;;;3.80;1.47;;;;;;;;;;5034874;28;20460;-66
2021/05/09 11:44:03;;;;;;;2.60;1.53;;;;;;;;;;5034852;28;20506;-66
2021/05/09 11:46:33;;;;;;;2.30;1.40;;;;;;;;;;5034351;28;20502;-67
2021/05/09 11:49:14;;;;;;;2.17;1.60;;;;;;;;;;5033770;28;20962;-66
2021/05/09 11:51:48;;;;;;;2.70;1.63;;;;;;;;;;5034316;28;20474;-66
2021/05/09 11:54:14;;;;;;;1.43;1.17;;;;;;;;;;5034753;28;20445;-66
2021/05/09 11:56:51;;;;;;;1.73;1.60;;;;;;;;;;5034194;28;20448;-67
2021/05/09 11:59:34;;;;;;;1.90;1.20;;;;;;;;;;5034431;28;20448;-66
2021/05/09 12:02:01;;;;;;;1.53;1.23;;;;;;;;;;5019226;28;20466;-66
2021/05/09 12:04:30;;;;;;;2.80;1.93;;;;;;;;;;5014726;28;20564;-66
2021/05/09 12:06:57;;;;;;;2.57;1.30;;;;;;;;;;5014399;28;20481;-66
2021/05/09 12:09:24;;;;;;;4.17;1.87;;;;;;;;;;5014543;28;20452;-66
2021/05/09 12:11:51;;;;;;;2.93;1.90;;;;;;;;;;5013984;28;20875;-66
2021/05/09 12:14:17;;;;;;;2.93;1.70;;;;;;;;;;5014229;28;21020;-66
2021/05/09 12:16:45;;;;;;;2.37;1.60;;;;;;;;;;5013645;28;20511;-67
2021/05/09 12:19:11;;;;;;;1.77;1.37;;;;;;;;;;5014454;28;20453;-66
2021/05/09 12:21:39;;;;;;;1.80;1.53;;;;;;;;;;5014384;28;20472;-67
2021/05/09 12:24:07;;;;;;;3.03;1.60;;;;;;;;;;5014403;28;20503;-67
2021/05/09 12:26:33;;;;;;;2.63;1.47;;;;;;;;;;5013747;28;20450;-66
2021/05/09 12:29:16;;;;;;;2.50;1.47;;;;;;;;;;5013881;28;20825;-66
2021/05/09 12:31:42;;;;;;;2.23;1.87;;;;;;;;;;5013881;28;20481;-67
2021/05/09 12:34:10;;;;;;;1.30;1.00;;;;;;;;;;5014121;28;20527;-66
2021/05/09 12:36:38;;;;;;;4.80;1.70;;;;;;;;;;5013615;28;20539;-67
2021/05/09 12:39:19;;;;;;;1.73;1.47;;;;;;;;;;5013971;28;20548;-66
2021/05/09 12:41:54;;;;;;;1.60;1.13;;;;;;;;;;5012871;28;20843;-67
2021/05/09 12:44:21;;;;;;;4.87;1.50;;;;;;;;;;5013899;28;20445;-67
2021/05/09 12:46:48;;;;;;;2.90;1.53;;;;;;;;;;5014911;28;20868;-66
2021/05/09 12:49:16;;;;;;;1.40;1.27;;;;;;;;;;5014501;28;20485;-66
2021/05/09 12:51:52;;;;;;;1.90;1.60;;;;;;;;;;5033281;28;20499;-66
2021/05/09 12:54:32;;;;;;;3.27;1.60;;;;;;;;;;5033653;28;20436;-67
2021/05/09 12:57:21;;;;;;;1.60;1.30;;;;;;;;;;5032860;28;20463;-66
2021/05/09 12:59:52;;;;;;;1.97;1.77;;;;;;;;;;5033217;28;20902;-66
2021/05/09 13:02:21;;;;;;;1.50;1.40;;;;;;;;;;5032425;28;20571;-66
2021/05/09 13:04:50;;;;;;;1.83;1.47;;;;;;;;;;5033182;28;20827;-66
2021/05/09 13:07:18;;;;;;;1.77;1.53;;;;;;;;;;5032954;28;20460;-66
2021/05/09 13:09:46;;;;;;;2.53;1.63;;;;;;;;;;5033082;28;20820;-67
2021/05/09 13:12:14;;;;;;;2.40;1.60;;;;;;;;;;5032720;28;20468;-66
2021/05/09 13:14:41;;;;;;;2.50;1.83;;;;;;;;;;5033185;28;20444;-66
2021/05/09 13:17:08;;;;;;;3.03;2.67;;;;;;;;;;5032263;28;20448;-66
2021/05/09 13:19:35;;;;;;;3.20;1.93;;;;;;;;;;5032137;28;20449;-67
2021/05/09 13:22:02;;;;;;;2.20;1.43;;;;;;;;;;5032817;28;20469;-66
2021/05/09 13:24:28;;;;;;;2.07;1.63;;;;;;;;;;5032811;28;20460;-66
2021/05/09 13:26:56;;;;;;;2.00;1.60;;;;;;;;;;5032537;28;20448;-66
2021/05/09 13:29:22;;;;;;;3.50;2.00;;;;;;;;;;5032600;28;20449;-66
2021/05/09 13:31:49;;;;;;;2.17;1.60;;;;;;;;;;5032388;28;20496;-66
2021/05/09 13:34:15;;;;;;;1.63;1.53;;;;;;;;;;5032502;28;20932;-67
2021/05/09 13:36:42;;;;;;;2.63;2.00;;;;;;;;;;5031657;28;20453;-66
2021/05/09 13:39:09;;;;;;;2.30;1.33;;;;;;;;;;5032378;28;20959;-66
2021/05/09 13:41:35;;;;;;;3.13;2.07;;;;;;;;;;5032442;28;20464;-66
2021/05/09 13:44:03;;;;;;;3.00;2.80;;;;;;;;;;5032132;28;20514;-66
2021/05/09 13:46:30;;;;;;;1.60;1.27;;;;;;;;;;5032209;28;20531;-66
2021/05/09 13:48:57;;;;;;;2.00;1.50;;;;;;;;;;5032432;28;20444;-67
2021/05/09 13:51:23;;;;;;;1.63;1.33;;;;;;;;;;5031628;28;21735;-66
2021/05/09 13:53:50;;;;;;;2.67;2.13;;;;;;;;;;5031962;28;20962;-67
2021/05/09 13:56:17;;;;;;;2.47;2.10;;;;;;;;;;5032040;28;20445;-66
2021/05/09 13:58:44;;;;;;;2.00;1.70;;;;;;;;;;5032293;28;20818;-66
2021/05/09 14:01:11;;;;;;;2.13;1.40;;;;;;;;;;5032599;28;20468;-67
2021/05/09 14:03:38;;;;;;;2.97;1.60;;;;;;;;;;5032385;28;20445;-66
2021/05/09 14:06:05;;;;;;;1.80;1.40;;;;;;;;;;5031596;28;20456;-66
2021/05/09 14:08:31;;;;;;;1.40;1.20;;;;;;;;;;5032458;28;20455;-65
2021/05/09 14:10:58;;;;;;;1.80;1.40;;;;;;;;;;5031910;28;20866;-65
2021/05/09 14:13:25;;;;;;;3.30;1.70;;;;;;;;;;5031774;28;20964;-65
2021/05/09 14:15:53;;;;;;;1.90;1.37;;;;;;;;;;5031823;28;20453;-65
2021/05/09 14:18:20;;;;;;;1.40;1.10;;;;;;;;;;5031703;28;20451;-65
2021/05/09 14:20:47;;;;;;;1.40;1.10;;;;;;;;;;5031880;28;20465;-65
2021/05/09 14:23:13;;;;;;;2.43;1.57;;;;;;;;;;5031351;28;20453;-66
2021/05/09 14:25:40;;;;;;;1.27;1.17;;;;;;;;;;5031456;28;20456;-65
2021/05/09 14:28:07;;;;;;;2.37;1.30;;;;;;;;;;5031978;28;20522;-65
2021/05/09 14:30:33;;;;;;;1.80;1.60;;;;;;;;;;5031572;28;20484;-65
2021/05/09 14:33:00;;;;;;;1.87;1.60;;;;;;;;;;5031817;28;20806;-65
2021/05/09 14:35:28;;;;;;;2.57;1.20;;;;;;;;;;5031681;28;20451;-65
2021/05/09 14:37:55;;;;;;;1.87;1.50;;;;;;;;;;5031362;28;20511;-65
2021/05/09 14:40:22;;;;;;;2.50;1.37;;;;;;;;;;5031912;28;20484;-64
2021/05/09 14:42:49;;;;;;;1.77;1.67;;;;;;;;;;5031460;28;20539;-64
2021/05/09 14:45:16;;;;;;;2.70;1.20;;;;;;;;;;5031180;28;20448;-64
2021/05/09 14:47:43;;;;;;;1.57;1.30;;;;;;;;;;5031788;28;20452;-64